Time;durP1;ratioP1;P1;durP2;ratioP2;P2;SDS_P1;SDS_P2;PMS_P1;PMS_P2;Temp;Humidity;BMP_temperature;BMP_pressure;BME280_temperature;BME280_humidity;BME280_pressure;Samples;Min_cycle;Max_cycle;Signal;HPM_P1;HPM_P2
2023/03/04 00:01:01;;;;;;;36.10;18.90;;;-2.30;99.90;;;;;;5099200;28;20686;-69
2023/03/04 00:03:28;;;;;;;33.80;19.13;;;-2.20;99.90;;;;;;5099203;28;20556;-69
2023/03/04 00:05:54;;;;;;;36.67;19.27;;;-2.10;99.90;;;;;;5099281;28;20235;-69
2023/03/04 00:08:21;;;;;;;35.20;19.23;;;-2.30;99.90;;;;;;5098870;28;20616;-69
2023/03/04 00:10:48;;;;;;;36.67;19.33;;;-2.40;99.90;;;;;;5099162;28;20242;-69
2023/03/04 00:13:17;;;;;;;32.37;18.13;;;-2.60;99.90;;;;;;5099065;28;20663;-69
2023/03/04 00:15:43;;;;;;;35.70;19.07;;;-2.70;99.90;;;;;;5098912;28;20319;-68
2023/03/04 00:18:10;;;;;;;33.33;18.27;;;-2.60;99.90;;;;;;5099204;28;20228;-69
2023/03/04 00:20:37;;;;;;;34.93;18.80;;;-2.60;99.90;;;;;;5098957;28;20232;-69
2023/03/04 00:23:03;;;;;;;35.67;18.83;;;-2.70;99.90;;;;;;5099115;28;20687;-69
2023/03/04 00:25:30;;;;;;;33.20;18.20;;;-2.70;99.90;;;;;;5099101;28;20619;-69
2023/03/04 00:27:57;;;;;;;34.87;18.37;;;-2.80;99.90;;;;;;5095544;28;20228;-70
2023/03/04 00:30:26;;;;;;;35.97;18.63;;;-2.80;99.90;;;;;;5095725;28;20196;-69
2023/03/04 00:32:53;;;;;;;35.17;17.90;;;-2.80;99.90;;;;;;5095666;28;20728;-69
2023/03/04 00:35:19;;;;;;;43.17;19.63;;;-2.80;99.90;;;;;;5095753;28;20278;-69
2023/03/04 00:37:46;;;;;;;35.00;18.63;;;-2.90;99.90;;;;;;5095783;28;20238;-68
2023/03/04 00:40:13;;;;;;;38.90;19.67;;;-2.90;99.90;;;;;;5095665;28;20227;-69
2023/03/04 00:42:40;;;;;;;35.77;17.80;;;-2.80;99.90;;;;;;5095430;28;20722;-69
2023/03/04 00:45:08;;;;;;;39.37;19.57;;;-2.80;99.90;;;;;;5095477;28;20228;-69
2023/03/04 00:47:36;;;;;;;33.60;18.13;;;-2.70;99.90;;;;;;5095561;28;20269;-69
2023/03/04 00:50:03;;;;;;;36.90;18.97;;;-2.60;99.90;;;;;;5095344;28;20232;-69
2023/03/04 00:52:30;;;;;;;31.53;18.27;;;-2.70;99.90;;;;;;5095319;28;20659;-69
2023/03/04 00:54:56;;;;;;;40.80;19.80;;;-2.80;99.90;;;;;;5095217;28;20216;-69
2023/03/04 00:57:23;;;;;;;38.67;20.27;;;-2.60;99.90;;;;;;5095278;28;20246;-70
2023/03/04 00:59:49;;;;;;;40.83;20.43;;;-2.50;99.90;;;;;;5095166;28;20238;-69
2023/03/04 01:02:16;;;;;;;37.70;19.50;;;-2.60;99.90;;;;;;5095258;28;20192;-68
2023/03/04 01:04:44;;;;;;;36.67;19.63;;;-2.80;99.90;;;;;;5095229;28;20228;-69
2023/03/04 01:07:11;;;;;;;37.73;20.30;;;-2.80;99.90;;;;;;5095162;28;20259;-69
2023/03/04 01:09:37;;;;;;;31.90;18.70;;;-2.60;99.90;;;;;;5095050;28;20228;-69
2023/03/04 01:12:04;;;;;;;39.50;20.07;;;-2.60;99.90;;;;;;5094848;28;20664;-69
2023/03/04 01:14:31;;;;;;;36.17;19.77;;;-2.60;99.90;;;;;;5095119;28;20232;-69
2023/03/04 01:16:57;;;;;;;37.67;19.33;;;-2.70;99.90;;;;;;5094901;28;20262;-70
2023/03/04 01:19:24;;;;;;;40.67;19.80;;;-2.90;99.90;;;;;;5094884;28;20196;-68
2023/03/04 01:21:52;;;;;;;37.83;20.07;;;-3.00;99.90;;;;;;5094721;28;20200;-69
2023/03/04 01:24:18;;;;;;;38.90;20.37;;;-2.90;99.90;;;;;;5094639;28;20231;-69
2023/03/04 01:26:45;;;;;;;33.73;18.93;;;-2.90;99.90;;;;;;5094542;28;20235;-69
2023/03/04 01:29:12;;;;;;;34.00;18.00;;;-3.00;99.90;;;;;;5094730;28;20655;-69
2023/03/04 01:31:38;;;;;;;38.30;20.53;;;-3.10;99.90;;;;;;5094614;28;20238;-67
2023/03/04 01:34:05;;;;;;;36.80;18.47;;;-3.00;99.90;;;;;;5094537;28;20605;-70
2023/03/04 01:36:32;;;;;;;37.67;19.63;;;-2.90;99.90;;;;;;5094335;28;20277;-69
2023/03/04 01:38:59;;;;;;;36.17;18.90;;;-3.20;99.90;;;;;;5093122;28;20700;-69
2023/03/04 01:41:27;;;;;;;37.03;19.10;;;-3.00;99.90;;;;;;5094214;28;20707;-70
2023/03/04 01:43:56;;;;;;;30.90;17.60;;;-2.90;99.90;;;;;;5094390;28;20226;-69
2023/03/04 01:46:23;;;;;;;39.90;18.97;;;-3.00;99.90;;;;;;5094111;28;20196;-69
2023/03/04 01:48:50;;;;;;;33.80;18.20;;;-3.20;99.90;;;;;;5094509;28;20235;-70
2023/03/04 01:51:18;;;;;;;36.13;17.17;;;-3.30;99.90;;;;;;5094156;28;20228;-69
2023/03/04 01:53:48;;;;;;;36.13;18.27;;;-3.30;99.90;;;;;;5093960;28;20223;-70
2023/03/04 01:56:21;;;;;;;36.30;18.13;;;-3.30;99.90;;;;;;5094203;28;20244;-70
2023/03/04 01:59:06;;;;;;;36.20;18.73;;;-3.30;99.90;;;;;;5094365;28;20227;-69
2023/03/04 02:01:33;;;;;;;34.53;17.63;;;-3.20;99.90;;;;;;5093854;28;20722;-69
2023/03/04 02:04:00;;;;;;;34.13;18.40;;;-3.10;99.90;;;;;;5093880;28;20203;-69
2023/03/04 02:06:27;;;;;;;34.33;18.97;;;-3.00;99.90;;;;;;5093754;28;20562;-69
2023/03/04 02:08:53;;;;;;;39.80;18.77;;;-3.00;99.90;;;;;;5093632;28;20224;-71
2023/03/04 02:11:21;;;;;;;34.83;18.83;;;-3.00;99.90;;;;;;5093797;28;20238;-68
2023/03/04 02:13:48;;;;;;;34.80;17.70;;;-3.10;99.90;;;;;;5093806;28;20223;-70
2023/03/04 02:16:15;;;;;;;37.43;18.37;;;-3.10;99.90;;;;;;5093474;28;20275;-70
2023/03/04 02:18:41;;;;;;;32.27;17.43;;;-3.30;99.90;;;;;;5093667;28;20231;-69
2023/03/04 02:21:15;;;;;;;37.43;17.70;;;-3.40;99.90;;;;;;5093745;28;20231;-70
2023/03/04 02:23:47;;;;;;;35.87;17.87;;;-3.20;99.90;;;;;;5093634;28;20248;-70
2023/03/04 02:26:17;;;;;;;40.87;19.13;;;-3.30;99.90;;;;;;5093619;28;20200;-68
2023/03/04 02:28:44;;;;;;;37.73;18.90;;;-3.40;99.90;;;;;;5093873;28;20323;-69
2023/03/04 02:31:21;;;;;;;38.37;19.00;;;-3.40;99.90;;;;;;5093346;28;20223;-69
2023/03/04 02:33:48;;;;;;;35.00;18.13;;;-3.30;99.90;;;;;;5093610;28;20214;-70
2023/03/04 02:36:14;;;;;;;36.23;18.40;;;-3.40;99.90;;;;;;5093551;28;20259;-69
2023/03/04 02:38:42;;;;;;;35.20;18.93;;;-3.50;99.90;;;;;;5093598;28;20228;-69
2023/03/04 02:41:12;;;;;;;37.33;18.90;;;-3.60;99.90;;;;;;5093639;28;20349;-68
2023/03/04 02:43:40;;;;;;;36.40;18.50;;;-3.60;99.90;;;;;;5093370;28;20196;-70
2023/03/04 02:46:10;;;;;;;34.73;17.73;;;-3.70;99.90;;;;;;5093356;28;20203;-69
2023/03/04 02:48:37;;;;;;;33.87;18.17;;;-3.60;99.90;;;;;;5093313;28;20304;-69
2023/03/04 02:51:03;;;;;;;35.50;18.77;;;-3.70;99.90;;;;;;5092865;28;20234;-69
2023/03/04 02:53:30;;;;;;;41.03;19.13;;;-3.70;99.90;;;;;;5093000;28;20233;-69
2023/03/04 02:55:57;;;;;;;37.90;18.20;;;-3.60;99.90;;;;;;5092943;28;20262;-69
2023/03/04 02:58:23;;;;;;;37.73;17.33;;;-3.70;99.90;;;;;;5092876;28;20207;-69
2023/03/04 03:00:51;;;;;;;30.67;17.40;;;-3.80;99.90;;;;;;5093150;28;20227;-69
2023/03/04 03:03:18;;;;;;;30.23;16.87;;;-3.90;99.90;;;;;;5092918;28;20673;-70
2023/03/04 03:05:45;;;;;;;35.20;17.47;;;-3.90;99.90;;;;;;5093025;28;20230;-69
2023/03/04 03:08:11;;;;;;;29.00;16.63;;;-3.90;99.90;;;;;;5092617;28;20710;-69
2023/03/04 03:10:38;;;;;;;35.87;17.07;;;-3.80;99.90;;;;;;5092959;28;20199;-69
2023/03/04 03:13:05;;;;;;;32.10;17.40;;;-3.70;99.90;;;;;;5092670;28;20205;-68
2023/03/04 03:15:31;;;;;;;32.67;17.13;;;-3.60;99.90;;;;;;5092908;28;20272;-69
2023/03/04 03:17:59;;;;;;;35.97;18.30;;;-3.70;99.90;;;;;;5092878;28;20276;-69
2023/03/04 03:20:26;;;;;;;38.93;16.73;;;-3.70;99.90;;;;;;5092820;28;20227;-69
2023/03/04 03:22:52;;;;;;;33.50;16.67;;;-3.70;99.90;;;;;;5092796;28;20224;-69
2023/03/04 03:25:19;;;;;;;32.17;16.97;;;-3.70;99.90;;;;;;5092749;28;20235;-71
2023/03/04 03:27:46;;;;;;;32.90;16.77;;;-3.70;99.90;;;;;;5092641;28;20229;-69
2023/03/04 03:30:15;;;;;;;33.97;16.97;;;-3.70;99.90;;;;;;5092857;28;20226;-69
2023/03/04 03:32:41;;;;;;;30.27;16.00;;;-3.80;99.90;;;;;;5092705;28;20231;-69
2023/03/04 03:35:10;;;;;;;32.10;16.67;;;-3.80;99.90;;;;;;5093036;28;20234;-69
2023/03/04 03:37:37;;;;;;;35.30;16.73;;;-3.90;99.90;;;;;;5092473;28;20263;-69
2023/03/04 03:40:04;;;;;;;32.73;15.60;;;-3.90;99.90;;;;;;5093061;28;20326;-69
2023/03/04 03:42:31;;;;;;;33.20;16.87;;;-3.80;99.90;;;;;;5092780;28;20237;-69
2023/03/04 03:44:57;;;;;;;28.77;15.37;;;-3.80;99.90;;;;;;5092734;28;20204;-69
2023/03/04 03:47:24;;;;;;;27.93;15.13;;;-3.90;99.90;;;;;;5092479;28;20614;-69
2023/03/04 03:49:51;;;;;;;29.80;15.87;;;-3.90;99.90;;;;;;5092377;28;20710;-69
2023/03/04 03:52:18;;;;;;;35.17;17.43;;;-3.90;99.90;;;;;;5092571;28;20233;-71
2023/03/04 03:54:45;;;;;;;37.90;18.17;;;-3.90;99.90;;;;;;5092461;28;20236;-69
2023/03/04 03:57:12;;;;;;;31.33;16.47;;;-3.90;99.90;;;;;;5092632;28;20261;-69
2023/03/04 03:59:38;;;;;;;32.07;15.90;;;-3.90;99.90;;;;;;5092466;28;20667;-70
2023/03/04 04:02:05;;;;;;;32.80;16.10;;;-3.90;99.90;;;;;;5093260;28;20199;-69
2023/03/04 04:04:32;;;;;;;33.33;16.30;;;-3.90;99.90;;;;;;5096288;28;20239;-70
2023/03/04 04:06:59;;;;;;;36.17;16.93;;;-3.80;99.90;;;;;;5095929;28;20240;-70
2023/03/04 04:09:26;;;;;;;32.67;17.13;;;-3.90;99.90;;;;;;5096099;28;20261;-69
2023/03/04 04:11:53;;;;;;;33.50;15.87;;;-3.60;99.90;;;;;;5096327;28;20641;-70
2023/03/04 04:14:20;;;;;;;34.57;17.10;;;-3.60;99.90;;;;;;5096213;28;20219;-71
2023/03/04 04:16:46;;;;;;;34.87;17.73;;;-3.70;99.90;;;;;;5096045;28;20262;-69
2023/03/04 04:19:17;;;;;;;31.00;17.40;;;-3.80;99.90;;;;;;5095985;28;20659;-69
2023/03/04 04:21:44;;;;;;;35.37;16.10;;;-3.70;99.90;;;;;;5095905;28;20195;-70
2023/03/04 04:24:10;;;;;;;34.87;17.07;;;-3.70;99.90;;;;;;5096061;28;20253;-69
2023/03/04 04:26:38;;;;;;;31.87;17.30;;;-3.50;99.90;;;;;;5095994;28;20234;-69
2023/03/04 04:29:05;;;;;;;31.77;16.17;;;-3.40;99.90;;;;;;5095853;28;20241;-69
2023/03/04 04:31:31;;;;;;;35.43;17.27;;;-3.50;99.90;;;;;;5095783;28;20235;-69
2023/03/04 04:33:58;;;;;;;33.00;16.30;;;-3.30;99.90;;;;;;5095762;28;20234;-69
2023/03/04 04:36:25;;;;;;;37.17;18.00;;;-3.30;99.90;;;;;;5095452;28;20583;-70
2023/03/04 04:38:51;;;;;;;34.20;17.57;;;-3.20;99.90;;;;;;5095839;28;20235;-69
2023/03/04 04:41:21;;;;;;;33.10;17.87;;;-3.10;99.90;;;;;;5095772;28;20239;-70
2023/03/04 04:43:49;;;;;;;33.97;17.67;;;-3.00;99.90;;;;;;5095730;28;20222;-69
2023/03/04 04:46:17;;;;;;;33.43;17.23;;;-3.00;99.90;;;;;;5095493;28;20201;-69
2023/03/04 04:48:44;;;;;;;38.90;17.57;;;-2.90;99.90;;;;;;5095327;28;20227;-69
2023/03/04 04:51:11;;;;;;;44.07;18.53;;;-2.80;99.90;;;;;;5095524;28;20228;-69
2023/03/04 04:53:38;;;;;;;35.63;18.80;;;-2.70;99.90;;;;;;5095241;28;20671;-69
2023/03/04 04:56:12;;;;;;;41.23;19.30;;;-2.60;99.90;;;;;;5095352;28;20258;-69
2023/03/04 04:58:40;;;;;;;42.87;20.27;;;-2.40;99.90;;;;;;5095245;28;20235;-70
2023/03/04 05:01:08;;;;;;;41.07;19.83;;;-2.40;99.90;;;;;;5095119;28;20235;-69
2023/03/04 05:03:36;;;;;;;45.03;21.20;;;-2.30;99.90;;;;;;5095034;28;20559;-69
2023/03/04 05:06:04;;;;;;;49.47;22.50;;;-2.20;99.90;;;;;;5095086;28;20231;-70
2023/03/04 05:08:31;;;;;;;49.77;21.23;;;-2.20;99.90;;;;;;5094797;28;20728;-69
2023/03/04 05:10:58;;;;;;;50.87;21.03;;;-2.10;99.90;;;;;;5094977;28;20246;-69
2023/03/04 05:13:24;;;;;;;45.80;20.87;;;-2.20;99.90;;;;;;5094665;28;20244;-69
2023/03/04 05:15:52;;;;;;;48.37;20.97;;;-2.20;99.90;;;;;;5094840;28;20231;-69
2023/03/04 05:18:22;;;;;;;44.60;22.13;;;-2.20;99.90;;;;;;5094970;28;20250;-70
2023/03/04 05:20:51;;;;;;;52.90;22.43;;;-2.20;99.90;;;;;;5094880;28;20228;-69
2023/03/04 05:23:18;;;;;;;49.53;22.30;;;-2.20;99.90;;;;;;5094780;28;20192;-69
2023/03/04 05:25:44;;;;;;;47.73;23.30;;;-2.10;99.90;;;;;;5094700;28;20231;-68
2023/03/04 05:28:11;;;;;;;45.60;21.47;;;-2.10;99.90;;;;;;5094555;28;20263;-69
2023/03/04 05:30:39;;;;;;;52.40;22.43;;;-2.10;99.90;;;;;;5094815;28;20200;-69
2023/03/04 05:33:07;;;;;;;48.30;21.63;;;-2.10;99.90;;;;;;5094735;28;20193;-69
2023/03/04 05:35:36;;;;;;;47.00;19.70;;;-2.10;99.90;;;;;;5094570;28;20242;-69
2023/03/04 05:38:03;;;;;;;50.73;21.20;;;-2.10;99.90;;;;;;5094678;28;20231;-70
2023/03/04 05:40:30;;;;;;;42.70;21.00;;;-2.10;99.90;;;;;;5094400;28;20232;-70
2023/03/04 05:42:57;;;;;;;52.43;22.17;;;-2.10;99.90;;;;;;5094302;28;20228;-70
2023/03/04 05:45:24;;;;;;;47.13;22.00;;;-2.00;99.90;;;;;;5094446;28;20228;-70
2023/03/04 05:47:51;;;;;;;48.50;20.73;;;-2.00;99.90;;;;;;5094351;28;20681;-70
2023/03/04 05:50:18;;;;;;;48.43;21.37;;;-2.00;99.90;;;;;;5094325;28;20223;-69
2023/03/04 05:52:46;;;;;;;49.17;20.63;;;-1.90;99.90;;;;;;5094112;28;20200;-70
2023/03/04 05:55:13;;;;;;;48.60;21.43;;;-2.00;99.90;;;;;;5094061;28;20204;-69
2023/03/04 05:57:39;;;;;;;49.23;22.50;;;-1.90;99.90;;;;;;5093993;28;20197;-69
2023/03/04 06:00:09;;;;;;;45.63;21.80;;;-1.90;99.90;;;;;;5093953;28;20239;-69
2023/03/04 06:02:36;;;;;;;48.57;21.03;;;-1.90;99.90;;;;;;5094070;28;20199;-69
2023/03/04 06:05:03;;;;;;;49.77;20.60;;;-1.90;99.90;;;;;;5093974;28;20228;-68
2023/03/04 06:07:30;;;;;;;48.93;23.20;;;-1.80;99.90;;;;;;5093633;28;20263;-69
2023/03/04 06:09:58;;;;;;;50.87;21.40;;;-1.80;99.90;;;;;;5093753;28;20235;-69
2023/03/04 06:12:25;;;;;;;52.43;22.87;;;-1.80;99.90;;;;;;5094022;28;20196;-69
2023/03/04 06:14:51;;;;;;;50.07;21.33;;;-1.80;99.90;;;;;;5093719;28;20671;-69
2023/03/04 06:17:18;;;;;;;49.40;22.50;;;-1.80;99.90;;;;;;5093949;28;20228;-69
2023/03/04 06:19:45;;;;;;;47.53;22.40;;;-1.70;99.90;;;;;;5093642;28;20228;-69
2023/03/04 06:22:11;;;;;;;46.17;21.30;;;-1.80;99.90;;;;;;5093612;28;20250;-69
2023/03/04 06:24:38;;;;;;;42.03;21.13;;;-1.70;99.90;;;;;;5092894;28;20258;-69
2023/03/04 06:27:06;;;;;;;44.90;21.27;;;-1.80;99.90;;;;;;5093667;28;20277;-70
2023/03/04 06:29:32;;;;;;;49.20;20.73;;;-1.80;99.90;;;;;;5093649;28;20224;-69
2023/03/04 06:31:59;;;;;;;42.07;20.97;;;-1.70;99.90;;;;;;5093609;28;20192;-69
2023/03/04 06:34:27;;;;;;;42.90;21.43;;;-1.70;99.90;;;;;;5093405;28;20207;-70
2023/03/04 06:36:53;;;;;;;45.07;21.80;;;-1.70;99.90;;;;;;5093406;28;20317;-69
2023/03/04 06:39:20;;;;;;;49.30;21.67;;;-1.70;99.90;;;;;;5093781;28;20231;-69
2023/03/04 06:41:46;;;;;;;45.07;22.27;;;-1.60;99.90;;;;;;5093230;28;20659;-69
2023/03/04 06:44:14;;;;;;;44.50;20.53;;;-1.60;99.90;;;;;;5093446;28;20192;-69
2023/03/04 06:46:41;;;;;;;47.97;23.03;;;-1.50;99.90;;;;;;5093209;28;20255;-70
2023/03/04 06:49:07;;;;;;;44.93;22.57;;;-1.40;99.90;;;;;;5093241;28;20462;-70
2023/03/04 06:51:34;;;;;;;43.13;21.47;;;-1.50;99.90;;;;;;5092986;28;20197;-68
2023/03/04 06:54:01;;;;;;;42.17;21.10;;;-1.40;99.90;;;;;;5092980;28;20197;-69
2023/03/04 06:56:27;;;;;;;41.10;21.53;;;-1.40;99.90;;;;;;5093177;28;20243;-69
2023/03/04 06:58:54;;;;;;;41.00;21.50;;;-1.40;99.90;;;;;;5093151;28;20322;-69
2023/03/04 07:01:24;;;;;;;40.80;20.27;;;-1.30;99.90;;;;;;5093063;28;20232;-69
2023/03/04 07:03:52;;;;;;;45.47;22.07;;;-1.30;99.90;;;;;;5092902;28;20671;-69
2023/03/04 07:06:21;;;;;;;38.50;20.60;;;-1.20;99.90;;;;;;5092802;28;20626;-69
2023/03/04 07:08:48;;;;;;;38.20;19.87;;;-1.10;99.90;;;;;;5092582;28;20263;-69
2023/03/04 07:11:15;;;;;;;38.97;20.07;;;-1.00;99.90;;;;;;5092749;28;20671;-70
2023/03/04 07:13:42;;;;;;;38.33;20.90;;;-0.90;99.90;;;;;;5092902;28;20201;-69
2023/03/04 07:16:11;;;;;;;35.67;20.43;;;-0.80;99.90;;;;;;5092743;28;20200;-69
2023/03/04 07:18:39;;;;;;;36.87;20.53;;;-0.80;99.90;;;;;;5092776;28;20296;-69
2023/03/04 07:21:07;;;;;;;34.03;19.37;;;-0.80;99.90;;;;;;5092702;28;20228;-70
2023/03/04 07:23:34;;;;;;;38.47;20.00;;;-0.80;99.90;;;;;;5092680;28;20683;-70
2023/03/04 07:26:01;;;;;;;31.67;18.63;;;-0.70;99.90;;;;;;5092797;28;20239;-69
2023/03/04 07:28:28;;;;;;;36.87;20.17;;;-0.70;99.90;;;;;;5092425;28;20695;-70
2023/03/04 07:30:54;;;;;;;35.77;19.30;;;-0.60;99.90;;;;;;5092691;28;20196;-69
2023/03/04 07:33:21;;;;;;;34.17;18.47;;;-0.60;99.90;;;;;;5092603;28;20231;-69
2023/03/04 07:35:49;;;;;;;32.53;19.17;;;-0.50;99.90;;;;;;5093282;28;20228;-70
2023/03/04 07:38:15;;;;;;;31.33;18.00;;;-0.40;99.90;;;;;;5096833;28;20271;-69
2023/03/04 07:40:42;;;;;;;31.30;19.00;;;-0.30;99.90;;;;;;5096687;28;20228;-69
2023/03/04 07:43:12;;;;;;;33.00;17.77;;;-0.40;99.90;;;;;;5096534;28;20234;-70
2023/03/04 07:45:38;;;;;;;29.30;17.83;;;-0.40;99.90;;;;;;5096497;28;20200;-69
2023/03/04 07:48:05;;;;;;;28.10;17.40;;;-0.30;99.90;;;;;;5096285;28;20246;-69
2023/03/04 07:50:32;;;;;;;30.73;18.00;;;-0.20;99.90;;;;;;5096797;28;20228;-69
2023/03/04 07:53:00;;;;;;;30.40;17.77;;;-0.20;99.90;;;;;;5096286;28;20602;-69
2023/03/04 07:55:29;;;;;;;32.33;18.17;;;-0.20;99.90;;;;;;5096318;28;20231;-70
2023/03/04 07:57:56;;;;;;;31.87;17.73;;;-0.30;99.90;;;;;;5096331;28;20664;-70
2023/03/04 08:00:23;;;;;;;28.33;17.87;;;-0.20;99.90;;;;;;5096276;28;20196;-70
2023/03/04 08:02:50;;;;;;;30.43;18.90;;;-0.10;99.90;;;;;;5096222;28;20239;-69
2023/03/04 08:05:16;;;;;;;27.83;16.57;;;0.00;99.90;;;;;;5096371;28;20224;-70
2023/03/04 08:07:43;;;;;;;29.60;16.30;;;0.00;99.90;;;;;;5096174;28;20263;-69
2023/03/04 08:10:11;;;;;;;36.57;18.07;;;-0.10;99.90;;;;;;5096226;28;20193;-69
2023/03/04 08:12:38;;;;;;;31.50;17.57;;;0.00;99.90;;;;;;5096137;28;20225;-68
2023/03/04 08:15:06;;;;;;;26.67;16.63;;;0.10;99.90;;;;;;5096052;28;20197;-69
2023/03/04 08:17:32;;;;;;;28.77;16.57;;;0.10;99.90;;;;;;5096392;28;20231;-68
2023/03/04 08:19:59;;;;;;;29.23;16.00;;;0.00;99.90;;;;;;5096093;28;20220;-70
2023/03/04 08:22:26;;;;;;;25.30;16.47;;;0.00;99.90;;;;;;5096063;28;20204;-69
2023/03/04 08:24:52;;;;;;;27.13;16.57;;;0.10;99.90;;;;;;5095922;28;20200;-69
2023/03/04 08:27:20;;;;;;;27.27;17.27;;;0.00;99.90;;;;;;5095600;28;20248;-68
2023/03/04 08:29:47;;;;;;;32.13;16.77;;;0.10;99.90;;;;;;5095506;28;20250;-70
2023/03/04 08:32:13;;;;;;;32.53;15.20;;;0.20;99.90;;;;;;5095617;28;20243;-69
2023/03/04 08:34:40;;;;;;;26.63;16.17;;;0.10;99.90;;;;;;5095851;28;20664;-70
2023/03/04 08:37:07;;;;;;;27.33;16.30;;;0.20;99.90;;;;;;5095726;28;20193;-70
2023/03/04 08:39:34;;;;;;;28.93;16.57;;;0.20;99.90;;;;;;5095564;28;20196;-70
2023/03/04 08:42:01;;;;;;;32.33;18.10;;;0.20;99.90;;;;;;5095500;28;20200;-71
2023/03/04 08:44:29;;;;;;;32.77;15.27;;;0.30;99.90;;;;;;5095393;28;20608;-69
2023/03/04 08:46:56;;;;;;;27.13;16.13;;;0.20;99.90;;;;;;5095713;28;20235;-69
2023/03/04 08:49:23;;;;;;;24.53;15.23;;;0.20;99.90;;;;;;5094488;28;20224;-68
2023/03/04 08:51:49;;;;;;;25.83;15.87;;;0.10;99.90;;;;;;5095370;28;20231;-69
2023/03/04 08:54:16;;;;;;;23.67;15.37;;;0.20;99.90;;;;;;5095151;28;20660;-69
2023/03/04 08:56:42;;;;;;;25.83;15.77;;;0.20;99.90;;;;;;5095053;28;20236;-70
2023/03/04 08:59:09;;;;;;;25.30;14.93;;;0.30;99.90;;;;;;5095343;28;20231;-69
2023/03/04 09:01:37;;;;;;;26.47;15.10;;;0.30;99.90;;;;;;5095319;28;20234;-69
2023/03/04 09:04:03;;;;;;;24.00;15.13;;;0.40;99.90;;;;;;5095162;28;20250;-69
2023/03/04 09:06:30;;;;;;;24.27;14.97;;;0.40;99.90;;;;;;5095180;28;20223;-69
2023/03/04 09:08:57;;;;;;;27.63;15.70;;;0.40;99.90;;;;;;5094780;28;20232;-70
2023/03/04 09:11:23;;;;;;;24.73;16.50;;;0.40;99.90;;;;;;5094918;28;20676;-69
2023/03/04 09:13:50;;;;;;;29.67;16.00;;;0.50;99.90;;;;;;5095193;28;20227;-70
2023/03/04 09:16:17;;;;;;;26.47;16.43;;;0.70;99.90;;;;;;5094866;28;20660;-69
2023/03/04 09:18:45;;;;;;;24.57;15.07;;;0.70;99.90;;;;;;5094897;28;20663;-69
2023/03/04 09:21:12;;;;;;;24.67;15.10;;;0.70;99.90;;;;;;5094827;28;20235;-69
2023/03/04 09:23:39;;;;;;;23.53;15.37;;;0.70;99.90;;;;;;5094761;28;20196;-69
2023/03/04 09:26:14;;;;;;;22.00;14.47;;;0.80;99.90;;;;;;5094777;28;20235;-71
2023/03/04 09:28:41;;;;;;;24.50;14.87;;;0.80;99.90;;;;;;5094816;28;20231;-70
2023/03/04 09:31:12;;;;;;;26.30;15.27;;;0.80;99.90;;;;;;5094851;28;20233;-70
2023/03/04 09:33:40;;;;;;;24.50;16.00;;;0.80;99.90;;;;;;5094404;28;20659;-70
2023/03/04 09:36:09;;;;;;;23.77;15.10;;;0.80;99.90;;;;;;5094310;28;20283;-69
2023/03/04 09:38:37;;;;;;;45.47;26.53;;;0.80;99.90;;;;;;5094610;28;20235;-70
2023/03/04 09:41:06;;;;;;;28.10;17.00;;;0.80;99.90;;;;;;5094415;28;20207;-69
2023/03/04 09:43:33;;;;;;;37.03;20.97;;;0.70;99.90;;;;;;5094336;28;20257;-70
2023/03/04 09:46:05;;;;;;;23.50;15.03;;;0.80;99.90;;;;;;5094376;28;20235;-69
2023/03/04 09:48:40;;;;;;;21.17;14.87;;;0.70;99.90;;;;;;5094103;28;20638;-70
2023/03/04 09:51:20;;;;;;;24.43;15.57;;;0.80;99.90;;;;;;5094544;28;20231;-70
2023/03/04 09:53:56;;;;;;;24.33;14.23;;;0.80;99.90;;;;;;5094307;28;20196;-70
2023/03/04 09:56:23;;;;;;;20.77;14.00;;;0.80;99.90;;;;;;5094056;28;20204;-69
2023/03/04 09:59:00;;;;;;;27.00;16.60;;;0.90;99.90;;;;;;5094210;28;20234;-69
2023/03/04 10:01:34;;;;;;;26.03;15.60;;;0.90;99.90;;;;;;5093285;28;20231;-69
2023/03/04 10:04:06;;;;;;;24.33;15.50;;;0.90;99.90;;;;;;5094018;28;20202;-70
2023/03/04 10:06:34;;;;;;;25.80;15.73;;;1.00;99.90;;;;;;5093828;28;20211;-69
2023/03/04 10:09:06;;;;;;;24.00;15.43;;;1.00;99.90;;;;;;5093993;28;20268;-69
2023/03/04 10:11:36;;;;;;;21.57;14.87;;;1.00;99.90;;;;;;5093734;28;20200;-69
2023/03/04 10:14:17;;;;;;;21.17;14.43;;;1.00;99.90;;;;;;5093667;28;20232;-69
2023/03/04 10:16:47;;;;;;;26.03;15.77;;;1.10;99.90;;;;;;5093809;28;20254;-69
2023/03/04 10:19:28;;;;;;;20.23;14.80;;;1.00;99.90;;;;;;5093702;28;20230;-70
2023/03/04 10:21:56;;;;;;;21.17;13.93;;;1.10;99.90;;;;;;5093574;28;20709;-69
2023/03/04 10:24:28;;;;;;;21.57;15.33;;;1.10;99.90;;;;;;5093498;28;20231;-69
2023/03/04 10:27:00;;;;;;;21.30;14.30;;;1.10;99.90;;;;;;5093665;28;20196;-69
2023/03/04 10:29:30;;;;;;;20.73;15.50;;;1.10;99.90;;;;;;5093386;28;20307;-69
2023/03/04 10:31:57;;;;;;;21.10;14.17;;;1.20;99.90;;;;;;5093494;28;20231;-69
2023/03/04 10:34:23;;;;;;;22.47;14.90;;;1.30;99.90;;;;;;5093390;28;20630;-69
2023/03/04 10:36:58;;;;;;;22.47;14.37;;;1.40;99.90;;;;;;5093236;28;20231;-69
2023/03/04 10:39:28;;;;;;;25.73;18.47;;;1.50;99.90;;;;;;5093463;28;20261;-70
2023/03/04 10:41:58;;;;;;;22.23;15.60;;;1.50;99.90;;;;;;5093359;28;20482;-70
2023/03/04 10:44:25;;;;;;;21.43;14.63;;;1.60;99.90;;;;;;5093164;28;20235;-69
2023/03/04 10:46:55;;;;;;;22.50;15.77;;;1.50;99.90;;;;;;5093255;28;20274;-71
2023/03/04 10:49:23;;;;;;;23.77;15.30;;;1.70;99.90;;;;;;5093063;28;20658;-69
2023/03/04 10:51:53;;;;;;;20.93;14.80;;;1.50;99.90;;;;;;5092978;28;20582;-70
2023/03/04 10:54:28;;;;;;;20.93;13.93;;;1.50;99.90;;;;;;5093123;28;20197;-69
2023/03/04 10:56:58;;;;;;;20.80;14.70;;;1.60;99.90;;;;;;5093233;28;20231;-71
2023/03/04 10:59:40;;;;;;;21.10;14.00;;;1.60;99.90;;;;;;5093533;28;20225;-70
2023/03/04 11:02:27;;;;;;;21.47;14.37;;;1.60;99.90;;;;;;5093384;28;20258;-70
2023/03/04 11:04:57;;;;;;;20.47;14.37;;;1.60;99.90;;;;;;5093029;28;20210;-69
2023/03/04 11:07:26;;;;;;;19.87;13.80;;;1.70;99.90;;;;;;5092782;28;20285;-70
2023/03/04 11:09:54;;;;;;;20.30;13.73;;;1.70;99.90;;;;;;5092803;28;20264;-70
2023/03/04 11:12:31;;;;;;;20.63;13.93;;;1.60;99.90;;;;;;5092901;28;20669;-70
2023/03/04 11:14:58;;;;;;;19.43;13.60;;;1.60;99.90;;;;;;5093004;28;20206;-70
2023/03/04 11:17:26;;;;;;;18.77;13.53;;;1.60;99.90;;;;;;5092904;28;20192;-68
2023/03/04 11:19:57;;;;;;;21.80;12.60;;;1.60;99.90;;;;;;5092758;28;20240;-68
2023/03/04 11:22:26;;;;;;;20.63;13.77;;;1.60;99.90;;;;;;5092654;28;20193;-70
2023/03/04 11:25:01;;;;;;;20.07;13.50;;;1.60;99.90;;;;;;5092691;28;20659;-70
2023/03/04 11:27:38;;;;;;;21.57;13.90;;;1.60;99.90;;;;;;5092812;28;20274;-69
2023/03/04 11:30:21;;;;;;;22.27;14.47;;;1.50;99.90;;;;;;5092688;28;20232;-69
2023/03/04 11:32:51;;;;;;;21.63;13.23;;;1.60;99.90;;;;;;5092781;28;20228;-70
2023/03/04 11:35:25;;;;;;;20.77;14.57;;;1.60;99.90;;;;;;5092702;28;20340;-69
2023/03/04 11:37:58;;;;;;;21.13;13.77;;;1.80;99.90;;;;;;5092845;28;20250;-71
2023/03/04 11:40:33;;;;;;;23.57;16.30;;;1.90;99.90;;;;;;5092726;28;20620;-69
2023/03/04 11:43:04;;;;;;;23.87;15.00;;;2.00;99.90;;;;;;5092444;28;20233;-69
2023/03/04 11:45:51;;;;;;;22.53;13.07;;;1.90;99.90;;;;;;5092495;28;20230;-70
2023/03/04 11:48:25;;;;;;;25.97;17.53;;;1.90;99.90;;;;;;5092736;28;20254;-69
2023/03/04 11:50:54;;;;;;;23.27;14.33;;;1.90;99.90;;;;;;5092767;28;20193;-69
2023/03/04 11:53:33;;;;;;;25.07;16.37;;;1.80;99.90;;;;;;5092461;28;20236;-70
2023/03/04 11:56:19;;;;;;;31.13;21.30;;;1.60;99.90;;;;;;5092531;28;20200;-69
2023/03/04 11:59:28;;;;;;;22.00;15.63;;;1.90;99.90;;;;;;5092472;28;20693;-69
2023/03/04 12:02:04;;;;;;;21.97;14.03;;;2.00;99.90;;;;;;5092404;28;20257;-70
2023/03/04 12:04:47;;;;;;;23.07;13.07;;;2.10;99.90;;;;;;5092667;28;20228;-71
2023/03/04 12:07:32;;;;;;;19.93;12.57;;;2.10;99.90;;;;;;5092354;28;20261;-69
2023/03/04 12:10:13;;;;;;;22.37;12.97;;;2.00;99.90;;;;;;5092282;28;20264;-70
2023/03/04 12:12:58;;;;;;;19.83;12.80;;;1.90;99.90;;;;;;5092396;28;20233;-69
2023/03/04 12:15:32;;;;;;;18.00;12.73;;;1.80;99.90;;;;;;5092534;28;20211;-70
2023/03/04 12:18:20;;;;;;;21.03;13.27;;;2.00;99.90;;;;;;5092424;28;20209;-69
2023/03/04 12:21:11;;;;;;;22.80;13.27;;;2.00;99.90;;;;;;5092214;28;20233;-70
2023/03/04 12:24:04;;;;;;;19.53;13.60;;;2.00;99.90;;;;;;5094142;28;20613;-72
2023/03/04 12:26:35;;;;;;;22.17;12.97;;;1.90;99.90;;;;;;5093609;28;20218;-69
2023/03/04 12:29:11;;;;;;;24.73;13.20;;;2.00;99.90;;;;;;5095842;28;20359;-71
2023/03/04 12:31:40;;;;;;;19.23;12.43;;;1.90;99.90;;;;;;5096005;28;20201;-71
2023/03/04 12:34:28;;;;;;;21.73;13.47;;;2.00;99.90;;;;;;5095944;28;20195;-71
2023/03/04 12:37:14;;;;;;;20.70;12.23;;;2.00;99.90;;;;;;5086523;28;20232;-68
2023/03/04 12:39:47;;;;;;;20.60;13.00;;;1.80;99.90;;;;;;5095579;28;20565;-68